createdAt,value
2023-04-13T00:01:28.935Z,1.20
2023-04-13T00:06:30.484Z,1.02
2023-04-13T00:11:32.020Z,1.10
2023-04-13T00:16:33.700Z,1.00
2023-04-13T00:21:35.307Z,1.00
2023-04-13T00:26:36.783Z,1.00
2023-04-13T00:31:39.829Z,1.30
2023-04-13T00:36:41.945Z,1.42
2023-04-13T00:41:43.398Z,1.38
2023-04-13T00:46:46.462Z,1.67
2023-04-13T00:51:48.662Z,1.38
2023-04-13T00:56:51.443Z,1.75
2023-04-13T01:01:56.620Z,1.50
2023-04-13T01:07:11.716Z,1.83
2023-04-13T01:12:25.984Z,1.80
2023-04-13T01:17:31.132Z,1.88
2023-04-13T01:22:35.845Z,1.80
2023-04-13T01:28:19.230Z,2.00
2023-04-13T01:33:21.781Z,1.80
2023-04-13T01:38:26.849Z,1.90
2023-04-13T01:43:28.795Z,1.90
2023-04-13T01:48:48.904Z,1.40
2023-04-13T01:54:11.296Z,1.85
2023-04-13T01:59:13.289Z,1.30
2023-04-13T02:04:15.573Z,1.30
2023-04-13T02:09:17.971Z,1.10
2023-04-13T02:14:19.436Z,0.90
2023-04-13T02:19:21.852Z,1.63
2023-04-13T02:24:23.398Z,1.08
2023-04-13T02:29:24.862Z,1.25
2023-04-13T02:34:26.431Z,1.38
2023-04-13T02:39:28.618Z,1.20
2023-04-13T02:44:30.258Z,1.23
2023-04-13T02:49:31.716Z,1.30
2023-04-13T02:54:33.223Z,1.58
2023-04-13T02:59:34.735Z,1.50
2023-04-13T03:04:36.321Z,1.95
2023-04-13T03:09:38.096Z,1.63
2023-04-13T03:14:39.547Z,1.30
2023-04-13T03:19:41.926Z,1.60
2023-04-13T03:24:43.463Z,1.15
2023-04-13T03:29:44.957Z,1.60
2023-04-13T03:34:46.479Z,1.67
2023-04-13T03:39:47.958Z,1.52
2023-04-13T03:44:49.438Z,1.35
2023-04-13T03:49:51.006Z,1.70
2023-04-13T03:54:52.711Z,1.58
2023-04-13T03:59:54.299Z,1.40
2023-04-13T04:04:56.084Z,1.58
2023-04-13T04:09:57.603Z,1.70
2023-04-13T04:14:59.059Z,1.90
2023-04-13T04:20:00.968Z,1.92
2023-04-13T04:25:02.571Z,2.15
2023-04-13T04:30:10.742Z,2.10
2023-04-13T04:35:12.428Z,1.88
2023-04-13T04:40:14.128Z,3.13
2023-04-13T04:45:16.690Z,1.83
2023-04-13T04:50:18.254Z,2.92
2023-04-13T04:55:19.790Z,2.22
2023-04-13T05:00:21.908Z,2.85
2023-04-13T05:05:24.958Z,2.47
2023-04-13T05:10:28.338Z,2.70
2023-04-13T05:15:29.914Z,3.47
2023-04-13T05:20:34.542Z,2.33
2023-04-13T05:25:36.672Z,2.47
2023-04-13T05:30:38.190Z,2.17
2023-04-13T05:35:40.300Z,2.35
2023-04-13T05:40:41.848Z,2.30
2023-04-13T05:45:43.377Z,2.22
2023-04-13T05:50:44.937Z,1.98
2023-04-13T05:55:48.218Z,2.35
2023-04-13T06:00:50.708Z,2.25
2023-04-13T06:05:52.653Z,2.30
2023-04-13T06:10:54.200Z,2.38
2023-04-13T06:15:55.714Z,1.75
2023-04-13T06:20:58.669Z,1.77
2023-04-13T06:26:00.271Z,2.53
2023-04-13T06:31:01.873Z,1.00
2023-04-13T06:36:03.604Z,1.42
2023-04-13T06:41:05.528Z,1.95
2023-04-13T06:46:07.866Z,1.33
2023-04-13T06:51:09.374Z,1.42
2023-04-13T06:56:10.990Z,1.67
2023-04-13T07:01:12.685Z,2.22
2023-04-13T07:06:14.566Z,1.85
2023-04-13T07:11:16.309Z,1.50
2023-04-13T07:16:17.963Z,1.48
2023-04-13T07:21:19.475Z,1.55
2023-04-13T07:26:21.030Z,1.45
2023-04-13T07:31:23.660Z,2.65
2023-04-13T07:36:25.207Z,1.90
2023-04-13T07:41:26.862Z,1.08
2023-04-13T07:46:28.418Z,1.70
2023-04-13T07:51:33.460Z,1.50
2023-04-13T07:56:36.318Z,2.13
2023-04-13T08:01:38.003Z,1.73
2023-04-13T08:06:39.555Z,1.98
2023-04-13T08:11:42.969Z,2.13
2023-04-13T08:16:44.658Z,2.05
2023-04-13T08:21:46.584Z,3.28
2023-04-13T08:26:48.146Z,2.95
2023-04-13T08:31:50.502Z,2.80
2023-04-13T08:36:52.651Z,2.58
2023-04-13T08:41:54.945Z,3.58
2023-04-13T08:46:56.625Z,3.20
2023-04-13T08:52:00.043Z,3.67
2023-04-13T08:57:02.728Z,3.00
2023-04-13T09:02:06.766Z,2.67
2023-04-13T09:07:13.025Z,3.17
2023-04-13T09:12:15.071Z,3.55
2023-04-13T09:17:27.969Z,3.20
2023-04-13T09:22:29.495Z,3.55
2023-04-13T09:27:31.229Z,3.55
2023-04-13T09:32:32.834Z,2.70
2023-04-13T09:37:36.744Z,3.83
2023-04-13T09:42:41.269Z,3.38
2023-04-13T09:47:42.942Z,2.95
2023-04-13T09:52:48.026Z,3.67
2023-04-13T09:57:49.533Z,3.42
2023-04-13T10:02:52.631Z,2.70
2023-04-13T10:07:56.236Z,2.65
2023-04-13T10:13:01.601Z,2.58
2023-04-13T10:18:06.296Z,2.80
2023-04-13T10:23:08.215Z,3.03
2023-04-13T10:28:09.699Z,2.53
2023-04-13T10:33:11.489Z,2.70
2023-04-13T10:38:12.969Z,2.20
2023-04-13T10:43:31.747Z,2.78
2023-04-13T10:48:33.549Z,2.35
2023-04-13T10:53:35.342Z,2.78
2023-04-13T10:58:36.877Z,2.83
2023-04-13T11:03:39.303Z,2.13
2023-04-13T11:08:48.442Z,2.50
2023-04-13T11:13:50.229Z,2.92
2023-04-13T11:19:02.630Z,2.65
2023-04-13T11:24:04.750Z,2.60
2023-04-13T11:29:06.331Z,2.38
2023-04-13T11:34:11.391Z,2.10
2023-04-13T11:39:14.755Z,2.72
2023-04-13T11:44:17.210Z,2.30
2023-04-13T11:49:18.885Z,2.95
2023-04-13T11:54:20.668Z,2.88
2023-04-13T11:59:26.119Z,2.38
2023-04-13T12:04:28.005Z,3.03
2023-04-13T12:09:54.542Z,2.72
2023-04-13T12:15:10.767Z,2.42
2023-04-13T12:20:16.293Z,2.70
2023-04-13T12:25:20.577Z,2.05
2023-04-13T12:30:23.227Z,2.25
2023-04-13T12:35:24.798Z,2.80
2023-04-13T12:40:26.436Z,2.92
2023-04-13T12:45:28.493Z,2.95
2023-04-13T12:50:33.190Z,2.30
2023-04-13T12:55:35.206Z,1.98
2023-04-13T13:00:36.817Z,2.10
2023-04-13T13:05:38.446Z,3.05
2023-04-13T13:10:41.084Z,2.83
2023-04-13T13:15:42.603Z,2.00
2023-04-13T13:20:44.401Z,1.98
2023-04-13T13:26:04.108Z,2.13
2023-04-13T13:31:08.405Z,1.90
2023-04-13T13:36:10.068Z,2.60
2023-04-13T13:41:11.606Z,2.10
2023-04-13T13:46:14.404Z,2.75
2023-04-13T13:51:16.061Z,2.60
2023-04-13T13:56:17.658Z,2.90
2023-04-13T14:01:19.252Z,2.50
2023-04-13T14:06:21.103Z,2.83
2023-04-13T14:11:22.855Z,2.70
2023-04-13T14:16:24.358Z,3.17
2023-04-13T14:21:26.544Z,2.92
2023-04-13T14:26:28.038Z,2.92
2023-04-13T14:31:29.908Z,2.25
2023-04-13T14:36:32.201Z,3.13
2023-04-13T14:41:33.706Z,2.88
2023-04-13T14:46:35.245Z,2.63
2023-04-13T14:51:37.341Z,3.03
2023-04-13T14:56:38.889Z,3.20
2023-04-13T15:01:41.135Z,3.08
2023-04-13T15:06:42.777Z,2.45
2023-04-13T15:11:44.349Z,2.58
2023-04-13T15:16:46.236Z,3.38
2023-04-13T15:21:47.854Z,2.45
2023-04-13T15:26:49.409Z,2.80
2023-04-13T15:31:51.716Z,2.97
2023-04-13T15:36:53.416Z,4.05
2023-04-13T15:41:55.209Z,2.22
2023-04-13T15:46:56.757Z,2.30
2023-04-13T15:51:58.226Z,3.00
2023-04-13T15:56:59.809Z,2.40
2023-04-13T16:02:01.957Z,2.85
2023-04-13T16:07:12.914Z,2.97
2023-04-13T16:12:15.493Z,2.42
2023-04-13T16:17:16.956Z,2.33
2023-04-13T16:22:18.912Z,1.88
2023-04-13T16:27:20.400Z,2.67
2023-04-13T16:32:21.867Z,2.55
2023-04-13T16:37:23.461Z,3.70
2023-04-13T16:42:25.004Z,2.75
2023-04-13T16:47:27.209Z,2.55
2023-04-13T16:52:29.095Z,2.58
2023-04-13T16:57:30.720Z,3.28
2023-04-13T17:02:37.731Z,3.72
2023-04-13T17:07:41.204Z,7.70
2023-04-13T17:12:42.674Z,4.47
2023-04-13T17:17:44.352Z,2.65
2023-04-13T17:22:46.035Z,2.50
2023-04-13T17:27:47.544Z,4.30
2023-04-13T17:32:49.154Z,3.58
2023-04-13T17:37:50.739Z,3.75
2023-04-13T17:42:52.248Z,5.63
2023-04-13T17:47:53.711Z,3.17
2023-04-13T17:52:55.480Z,3.40
2023-04-13T17:57:57.036Z,3.55
2023-04-13T18:02:58.798Z,2.60
2023-04-13T18:08:00.487Z,3.28
2023-04-13T18:13:02.013Z,3.42
2023-04-13T18:18:03.694Z,3.30
2023-04-13T18:23:05.249Z,3.70
2023-04-13T18:28:06.907Z,4.07
2023-04-13T18:33:09.250Z,5.57
2023-04-13T18:38:10.976Z,3.60
2023-04-13T18:43:12.502Z,4.00
2023-04-13T18:48:14.062Z,3.40
2023-04-13T18:53:15.910Z,2.85
2023-04-13T18:58:19.583Z,3.92
2023-04-13T19:03:21.361Z,2.20
2023-04-13T19:08:22.976Z,2.72
2023-04-13T19:13:24.525Z,2.83
2023-04-13T19:18:26.107Z,2.53
2023-04-13T19:23:27.583Z,3.10
2023-04-13T19:28:29.104Z,3.00
2023-04-13T19:33:30.688Z,3.75
2023-04-13T19:38:32.628Z,3.85
2023-04-13T19:43:34.118Z,2.65
2023-04-13T19:48:36.196Z,3.50
2023-04-13T19:53:38.371Z,3.05
2023-04-13T19:58:40.094Z,3.83
2023-04-13T20:03:42.839Z,3.35
2023-04-13T20:08:45.481Z,3.05
2023-04-13T20:13:47.017Z,2.60
2023-04-13T20:18:49.731Z,3.10
2023-04-13T20:23:51.187Z,3.88
2023-04-13T20:28:59.955Z,3.40
2023-04-13T20:34:03.230Z,3.05
2023-04-13T20:39:04.850Z,3.53
2023-04-13T20:44:09.797Z,3.38
2023-04-13T20:49:11.865Z,3.78
2023-04-13T20:54:13.422Z,3.42
2023-04-13T20:59:16.089Z,3.58
2023-04-13T21:04:17.698Z,3.25
2023-04-13T21:09:19.351Z,3.25
2023-04-13T21:14:23.333Z,3.33
2023-04-13T21:19:27.500Z,3.50
2023-04-13T21:24:28.999Z,3.67
2023-04-13T21:29:30.482Z,2.78
2023-04-13T21:34:32.395Z,3.60
2023-04-13T21:39:34.223Z,2.80
2023-04-13T21:44:35.881Z,3.00
2023-04-13T21:49:37.458Z,3.97
2023-04-13T21:54:38.961Z,3.42
2023-04-13T21:59:40.665Z,2.33
2023-04-13T22:04:42.155Z,3.22
2023-04-13T22:09:43.711Z,2.97
2023-04-13T22:14:45.258Z,2.47
2023-04-13T22:19:46.766Z,2.83
2023-04-13T22:24:51.237Z,2.85
2023-04-13T22:29:54.857Z,2.75
2023-04-13T22:34:57.066Z,3.00
2023-04-13T22:40:00.783Z,3.15
2023-04-13T22:45:02.398Z,2.50
2023-04-13T22:50:04.036Z,2.13
2023-04-13T22:55:05.884Z,2.33
2023-04-13T23:00:07.822Z,2.13
2023-04-13T23:05:09.572Z,2.10
2023-04-13T23:10:11.241Z,2.35
2023-04-13T23:15:13.774Z,2.35
2023-04-13T23:20:15.399Z,2.33
2023-04-13T23:25:16.974Z,2.00
2023-04-13T23:30:18.595Z,1.75
2023-04-13T23:35:20.207Z,2.20
2023-04-13T23:40:21.838Z,2.65
2023-04-13T23:45:24.824Z,2.67
2023-04-13T23:50:26.509Z,2.30
2023-04-13T23:55:28.009Z,2.80
